YPXM

Details ICAO YPXM (XCH)
Name Christmas Island
Region Australia
Timezone Indian/Christmas (UTC+7.0)
Plans Departing 24
Arriving 33
Stats Elevation 916 ft / 279 m (AMSL)
Location -10.450215° 105.690929°
Runways 1
Magnetic Variation 0.383° E
Sunrise 2017-12-10 22:30:10 UTC / 2017-12-11 05:30:10 Local
Sunset 2017-12-11 11:13:28 UTC / 2017-12-11 18:13:28 Local
Advertisement - Login to hide

Runways

ID Width Length Bearing (true) Bearing (mag) Surface Threshold Offset Overrun Length
18 148 ft / 45 m 6,935 ft / 2,114 m 175.52° 175.14° Asphalt 0 ft / 0 m 203 ft / 62 m
36 148 ft / 45 m 6,935 ft / 2,114 m 355.52° 355.14° Asphalt 0 ft / 0 m 203 ft / 62 m

Map

Weather


0- 5 10 15 20 25 30 35+ Temperature / ° C

Clouds and Precipitation
Forecast for 2017-12-11 06:00 UTC. Updated an hour ago

Ground ~20,000 ft ~40,000 ft Winds

METAR

YPXM 110200Z AUTO 13008KT 9999 // BKN022 OVC026 26/23 Q1014

TAF

TAF AMD YPXM 110026Z 1100/1124 13008KT 4000 SHRA BKN005 FM110100 14007KT 9999 -SHRA BKN010 TEMPO 1100/1112 2000 SHRA BKN002

Frequencies

Unicom 122.80 MHz CTAF
Warning: Do not use this data for real-world aviation or navigation. No guarantee of current accuracy is given.